Time;durP1;ratioP1;P1;durP2;ratioP2;P2;SDS_P1;SDS_P2;PMS_P1;PMS_P2;Temp;Humidity;BMP_temperature;BMP_pressure;BME280_temperature;BME280_humidity;BME280_pressure;Samples;Min_cycle;Max_cycle;Signal;HPM_P1;HPM_P2
2022/07/28 00:00:43;;;;;;;7.10;1.58;;;18.40;99.90;;;;;;5113261;28;20039;-69
2022/07/28 00:03:08;;;;;;;4.60;1.50;;;18.50;99.90;;;;;;5114920;28;20032;-64
2022/07/28 00:05:35;;;;;;;6.72;2.03;;;18.60;99.90;;;;;;5116436;28;20019;-67
2022/07/28 00:08:01;;;;;;;4.85;1.65;;;18.60;99.90;;;;;;5116605;28;20038;-61
2022/07/28 00:10:27;;;;;;;11.50;2.00;;;18.60;99.90;;;;;;5097135;28;20535;-70
2022/07/28 00:12:53;;;;;;;9.93;1.80;;;18.60;99.90;;;;;;5102495;28;20034;-65
2022/07/28 00:15:18;;;;;;;9.75;1.50;;;18.20;99.90;;;;;;5098064;28;20028;-61
2022/07/28 00:17:44;;;;;;;5.57;1.60;;;18.10;99.90;;;;;;5116224;28;20055;-69
2022/07/28 00:20:10;;;;;;;9.07;1.50;;;17.90;99.90;;;;;;5116269;28;20080;-68
2022/07/28 00:22:43;;;;;;;8.85;2.35;;;17.80;99.90;;;;;;5115901;28;20038;-69
2022/07/28 00:25:09;;;;;;;7.03;2.83;;;17.60;99.90;;;;;;5116345;28;20423;-68
2022/07/28 00:27:36;;;;;;;2.83;1.27;;;17.70;99.90;;;;;;5115607;28;20163;-62
2022/07/28 00:30:06;;;;;;;8.23;1.60;;;17.60;99.90;;;;;;5116236;28;20027;-61
2022/07/28 00:32:32;;;;;;;6.88;1.55;;;17.50;99.90;;;;;;5115817;28;20023;-67
2022/07/28 00:34:58;;;;;;;5.28;1.77;;;17.70;99.90;;;;;;5115823;28;20478;-64
2022/07/28 00:37:24;;;;;;;5.15;2.05;;;17.60;99.90;;;;;;5115847;28;20066;-60
2022/07/28 00:39:49;;;;;;;10.82;1.55;;;17.50;99.90;;;;;;5115877;28;20479;-69
2022/07/28 00:42:21;;;;;;;5.05;1.65;;;17.40;99.90;;;;;;5115311;28;20060;-66
2022/07/28 00:44:47;;;;;;;4.57;1.60;;;17.60;99.90;;;;;;5115732;28;20023;-69
2022/07/28 00:47:13;;;;;;;7.35;1.80;;;17.50;99.90;;;;;;5115679;28;20501;-67
2022/07/28 00:49:39;;;;;;;4.63;1.60;;;17.40;99.90;;;;;;5097407;28;20035;-68
2022/07/28 00:52:08;;;;;;;5.38;1.70;;;17.50;99.90;;;;;;5115607;28;20026;-61
2022/07/28 00:54:34;;;;;;;5.05;1.50;;;17.20;99.90;;;;;;5115085;28;20035;-61
2022/07/28 00:57:00;;;;;;;5.05;1.60;;;17.30;99.90;;;;;;5115402;28;20094;-61
2022/07/28 00:59:25;;;;;;;8.77;1.90;;;17.20;99.90;;;;;;5115518;28;20535;-60
2022/07/28 01:01:52;;;;;;;3.65;1.40;;;17.10;99.90;;;;;;5115286;28;20019;-60
2022/07/28 01:04:18;;;;;;;8.60;2.35;;;17.30;99.90;;;;;;5115347;28;20040;-61
2022/07/28 01:07:05;;;;;;;3.15;1.40;;;17.10;99.90;;;;;;5114993;28;20027;-60
2022/07/28 01:09:46;;;;;;;4.72;1.80;;;17.10;99.90;;;;;;5115048;28;20024;-69
2022/07/28 01:12:36;;;;;;;9.55;1.52;;;17.10;99.90;;;;;;5100725;28;20032;-61
2022/07/28 01:15:23;;;;;;;5.85;1.80;;;16.90;99.90;;;;;;5114054;28;20031;-60
2022/07/28 01:18:10;;;;;;;5.28;1.45;;;17.10;99.90;;;;;;5114939;28;20034;-61
2022/07/28 01:20:46;;;;;;;6.43;1.80;;;17.10;99.90;;;;;;5115083;28;20082;-61
2022/07/28 01:23:11;;;;;;;4.78;1.75;;;17.10;99.90;;;;;;5115391;28;20444;-61
2022/07/28 01:25:48;;;;;;;8.75;1.70;;;17.30;99.90;;;;;;5114935;28;20051;-69
2022/07/28 01:28:32;;;;;;;5.90;1.40;;;17.60;99.90;;;;;;5101875;28;20131;-68
2022/07/28 01:31:03;;;;;;;2.92;1.38;;;17.60;99.90;;;;;;5114892;28;20445;-64
2022/07/28 01:33:43;;;;;;;9.45;2.00;;;17.70;99.90;;;;;;5114705;28;20051;-63
2022/07/28 01:36:17;;;;;;;7.07;1.88;;;17.10;99.90;;;;;;5114671;28;20411;-68
2022/07/28 01:38:46;;;;;;;4.65;1.55;;;17.00;99.90;;;;;;5114370;28;20059;-66
2022/07/28 01:41:16;;;;;;;10.93;2.08;;;17.20;99.90;;;;;;5114577;28;20074;-62
2022/07/28 01:43:46;;;;;;;12.73;1.90;;;17.30;99.90;;;;;;5114562;28;20467;-62
2022/07/28 01:46:15;;;;;;;3.75;1.75;;;17.30;99.90;;;;;;5114384;28;20054;-69
2022/07/28 01:48:43;;;;;;;5.10;1.58;;;17.20;99.90;;;;;;5114387;28;20019;-66
2022/07/28 01:51:12;;;;;;;7.43;2.28;;;17.20;99.90;;;;;;5096373;28;20024;-61
2022/07/28 01:53:39;;;;;;;8.25;1.65;;;17.20;99.90;;;;;;5114106;28;20016;-69
2022/07/28 01:56:07;;;;;;;3.33;1.25;;;17.10;99.90;;;;;;5114202;28;20126;-68
2022/07/28 01:58:34;;;;;;;8.02;1.88;;;16.90;99.90;;;;;;5113983;28;20073;-65
2022/07/28 02:01:02;;;;;;;6.05;1.50;;;16.90;99.90;;;;;;5114417;28;20027;-61
2022/07/28 02:03:30;;;;;;;9.60;1.83;;;17.00;99.90;;;;;;5114048;28;20460;-68
2022/07/28 02:05:58;;;;;;;5.80;1.63;;;17.20;99.90;;;;;;5113963;28;20065;-68
2022/07/28 02:08:25;;;;;;;5.45;1.70;;;16.90;99.90;;;;;;5113622;28;20020;-69
2022/07/28 02:13:38;;;;;;;7.78;1.60;;;16.90;99.90;;;;;;5107465;28;20026;-69
2022/07/28 02:16:09;;;;;;;6.82;2.03;;;16.60;99.90;;;;;;5118053;28;20531;-70
2022/07/28 02:18:36;;;;;;;4.65;1.48;;;16.40;99.90;;;;;;5109018;28;20365;-71
2022/07/28 02:21:03;;;;;;;4.28;1.48;;;16.50;99.90;;;;;;5093001;28;20043;-70
2022/07/28 02:23:29;;;;;;;5.90;1.55;;;16.80;99.90;;;;;;5096502;28;20040;-62
2022/07/28 02:25:57;;;;;;;10.20;1.83;;;16.90;99.90;;;;;;5103401;28;20028;-70
2022/07/28 02:28:25;;;;;;;4.65;1.50;;;16.70;99.90;;;;;;5104136;28;20063;-64
2022/07/28 02:31:00;;;;;;;6.07;1.35;;;16.70;99.90;;;;;;5091282;28;20042;-67
2022/07/28 02:33:27;;;;;;;5.32;1.30;;;16.40;99.90;;;;;;5113556;28;20395;-69
2022/07/28 02:36:00;;;;;;;7.60;1.60;;;16.60;99.90;;;;;;5112802;28;20035;-70
2022/07/28 02:38:40;;;;;;;5.78;1.73;;;16.60;99.90;;;;;;5100886;28;20042;-70
2022/07/28 02:41:21;;;;;;;6.03;1.75;;;16.30;99.90;;;;;;5113534;28;20054;-70
2022/07/28 02:43:50;;;;;;;5.63;1.60;;;16.20;99.90;;;;;;5113557;28;20434;-71
2022/07/28 02:46:20;;;;;;;4.97;1.83;;;16.20;99.90;;;;;;5095244;28;20103;-71
2022/07/28 02:48:51;;;;;;;8.65;2.05;;;16.00;99.90;;;;;;5113472;28;20047;-63
2022/07/28 02:51:20;;;;;;;5.22;1.92;;;15.90;99.90;;;;;;5113175;28;20074;-62
2022/07/28 02:53:47;;;;;;;4.35;1.73;;;15.90;99.90;;;;;;5105465;28;20038;-62
2022/07/28 02:56:16;;;;;;;4.38;1.50;;;16.20;99.90;;;;;;5088845;28;20499;-62
2022/07/28 02:58:42;;;;;;;6.60;1.55;;;16.20;99.90;;;;;;5113363;28;20031;-71
2022/07/28 03:01:09;;;;;;;4.22;1.30;;;16.30;99.90;;;;;;5113378;28;20035;-71
2022/07/28 03:03:36;;;;;;;12.93;1.88;;;16.10;99.90;;;;;;5113258;28;20020;-62
2022/07/28 03:06:02;;;;;;;8.07;1.92;;;16.00;99.90;;;;;;5112763;28;20031;-71
2022/07/28 03:08:28;;;;;;;3.45;1.45;;;16.00;99.90;;;;;;5113263;28;20038;-71
2022/07/28 03:11:08;;;;;;;7.55;1.92;;;16.00;99.90;;;;;;5113130;28;20015;-71
2022/07/28 03:13:33;;;;;;;6.53;1.67;;;15.90;99.90;;;;;;5113278;28;20032;-69
2022/07/28 03:15:59;;;;;;;11.43;2.28;;;15.90;99.90;;;;;;5112811;28;20100;-70
2022/07/28 03:18:27;;;;;;;6.22;1.60;;;15.80;99.90;;;;;;5113054;28;20031;-67
2022/07/28 03:20:54;;;;;;;4.53;1.63;;;15.70;99.90;;;;;;5112911;28;20510;-62
2022/07/28 03:23:28;;;;;;;4.95;1.55;;;15.80;99.90;;;;;;5094925;28;20035;-69
2022/07/28 03:26:03;;;;;;;11.63;1.65;;;15.90;99.90;;;;;;5094434;28;20023;-70
2022/07/28 03:28:30;;;;;;;4.45;1.60;;;15.90;99.90;;;;;;5100359;28;20036;-70
2022/07/28 03:31:02;;;;;;;3.30;1.60;;;15.90;99.90;;;;;;5111533;28;20016;-71
2022/07/28 03:33:28;;;;;;;5.03;1.77;;;15.90;99.90;;;;;;5094916;28;20050;-70
2022/07/28 03:35:57;;;;;;;14.10;1.70;;;15.80;99.90;;;;;;5112694;28;20448;-70
2022/07/28 03:38:27;;;;;;;5.03;1.80;;;15.80;99.90;;;;;;5115766;28;20054;-63
2022/07/28 03:40:55;;;;;;;6.88;1.63;;;15.70;99.90;;;;;;5116916;28;20035;-65
2022/07/28 03:43:24;;;;;;;9.00;1.73;;;15.80;99.90;;;;;;5116993;28;20030;-62
2022/07/28 03:45:50;;;;;;;5.78;1.70;;;15.80;99.90;;;;;;5116661;28;20032;-63
2022/07/28 03:48:16;;;;;;;6.00;2.08;;;15.60;99.90;;;;;;5117174;28;20108;-70
2022/07/28 03:50:42;;;;;;;6.20;1.60;;;15.70;99.90;;;;;;5116444;28;20069;-69
2022/07/28 03:53:34;;;;;;;6.53;2.08;;;15.70;99.90;;;;;;5116846;28;20019;-70
2022/07/28 03:56:02;;;;;;;8.15;2.08;;;15.70;99.90;;;;;;5111617;28;20143;-68
2022/07/28 03:58:28;;;;;;;12.98;2.05;;;15.70;99.90;;;;;;5116627;28;20028;-69
2022/07/28 04:00:54;;;;;;;5.03;1.88;;;15.60;99.90;;;;;;5116660;28;20027;-70
2022/07/28 04:03:20;;;;;;;4.97;2.17;;;15.50;99.90;;;;;;5116098;28;20371;-71
2022/07/28 04:05:46;;;;;;;9.60;1.92;;;15.40;99.90;;;;;;5116209;28;20031;-69
2022/07/28 04:08:12;;;;;;;9.70;1.98;;;15.50;99.90;;;;;;5115869;28;20024;-62
2022/07/28 04:10:38;;;;;;;11.65;2.38;;;15.80;99.90;;;;;;5116251;28;20383;-70
2022/07/28 04:13:04;;;;;;;7.18;1.90;;;15.90;99.90;;;;;;5116279;28;20028;-66
2022/07/28 04:15:31;;;;;;;7.03;1.63;;;15.80;99.90;;;;;;5116457;28;20517;-69
2022/07/28 04:17:57;;;;;;;11.68;2.33;;;15.60;99.90;;;;;;5115983;28;20027;-70
2022/07/28 04:20:24;;;;;;;10.38;2.72;;;15.70;99.90;;;;;;5097845;28;20070;-68
2022/07/28 04:22:52;;;;;;;9.35;2.40;;;15.70;99.90;;;;;;5116135;28;20459;-69
2022/07/28 04:25:20;;;;;;;14.60;3.08;;;15.50;99.90;;;;;;5116826;28;20023;-68
2022/07/28 04:27:46;;;;;;;4.18;2.10;;;15.50;99.90;;;;;;5109438;28;20036;-70
2022/07/28 04:30:17;;;;;;;9.07;2.42;;;15.60;99.90;;;;;;5108583;28;20023;-70
2022/07/28 04:32:44;;;;;;;14.82;2.90;;;15.60;99.90;;;;;;5115614;28;20032;-69
2022/07/28 04:35:11;;;;;;;10.05;2.85;;;15.60;99.90;;;;;;5116025;28;20016;-69
2022/07/28 04:37:38;;;;;;;3.97;2.08;;;15.50;99.90;;;;;;5116227;28;20023;-71
2022/07/28 04:40:08;;;;;;;9.07;2.08;;;15.70;99.90;;;;;;5115953;28;20387;-68
2022/07/28 04:42:35;;;;;;;7.45;2.05;;;15.70;99.90;;;;;;5115548;28;20490;-62
2022/07/28 04:45:01;;;;;;;9.60;2.25;;;15.70;99.90;;;;;;5115742;28;20026;-63
2022/07/28 04:47:28;;;;;;;8.02;2.10;;;15.70;99.90;;;;;;5115374;28;20030;-70
2022/07/28 04:49:54;;;;;;;8.82;2.50;;;15.50;99.90;;;;;;5115256;28;20027;-65
2022/07/28 04:52:20;;;;;;;17.10;2.45;;;15.70;99.90;;;;;;5115602;28;20023;-63
2022/07/28 04:54:47;;;;;;;8.60;2.47;;;15.80;99.90;;;;;;5115127;28;20035;-63
2022/07/28 04:57:13;;;;;;;13.02;2.22;;;16.00;99.90;;;;;;5115565;28;20020;-66
2022/07/28 04:59:39;;;;;;;10.90;2.65;;;16.00;99.90;;;;;;5115477;28;20046;-65
2022/07/28 05:02:05;;;;;;;8.93;2.80;;;15.80;99.90;;;;;;5115132;28;20500;-64
2022/07/28 05:04:31;;;;;;;9.15;2.75;;;15.90;99.90;;;;;;5115177;28;20039;-62
2022/07/28 05:06:57;;;;;;;9.05;2.15;;;15.90;99.90;;;;;;5115290;28;20084;-67
2022/07/28 05:09:23;;;;;;;9.27;2.20;;;15.80;99.90;;;;;;5115500;28;20475;-62
2022/07/28 05:11:49;;;;;;;5.10;2.45;;;15.70;99.90;;;;;;5115038;28;20454;-62
2022/07/28 05:14:15;;;;;;;9.18;2.63;;;15.90;99.90;;;;;;5115354;28;20043;-64
2022/07/28 05:16:40;;;;;;;10.27;2.72;;;15.90;99.90;;;;;;5114589;28;20111;-70
2022/07/28 05:19:06;;;;;;;7.10;2.33;;;16.00;99.90;;;;;;5114907;28;20027;-66
2022/07/28 05:21:32;;;;;;;10.55;2.17;;;15.80;99.90;;;;;;5115175;28;20026;-68
2022/07/28 05:23:58;;;;;;;7.40;2.55;;;15.90;99.90;;;;;;5115067;28;20371;-67
2022/07/28 05:26:24;;;;;;;8.82;2.85;;;15.90;99.90;;;;;;5115050;28;20464;-64
2022/07/28 05:28:49;;;;;;;7.60;3.10;;;15.70;99.90;;;;;;5100236;28;20024;-68
2022/07/28 05:31:15;;;;;;;8.15;2.75;;;15.90;99.90;;;;;;5116584;28;20559;-71
2022/07/28 05:33:41;;;;;;;10.95;2.85;;;16.10;99.90;;;;;;5115712;28;20528;-71
2022/07/28 05:36:07;;;;;;;6.32;2.85;;;16.10;99.90;;;;;;5114844;28;20063;-71
2022/07/28 05:38:32;;;;;;;11.57;2.80;;;16.00;99.90;;;;;;5114659;28;20066;-71
2022/07/28 05:40:59;;;;;;;9.60;3.28;;;15.90;99.90;;;;;;5114648;28;20031;-71
2022/07/28 05:43:24;;;;;;;11.93;2.92;;;15.70;99.90;;;;;;5114457;28;20043;-71
2022/07/28 05:45:50;;;;;;;4.32;2.40;;;15.70;99.90;;;;;;5114262;28;20046;-62
2022/07/28 05:48:20;;;;;;;6.80;2.00;;;15.70;99.90;;;;;;5096106;28;20016;-62
2022/07/28 05:50:48;;;;;;;7.63;2.60;;;15.60;99.90;;;;;;5114581;28;20032;-62
2022/07/28 05:53:13;;;;;;;9.13;3.28;;;15.60;99.90;;;;;;5114228;28;20023;-62
2022/07/28 05:55:39;;;;;;;13.00;2.47;;;15.70;99.90;;;;;;5114422;28;20046;-62
2022/07/28 05:58:05;;;;;;;14.90;2.55;;;15.80;99.90;;;;;;5114196;28;20414;-64
2022/07/28 06:00:32;;;;;;;7.50;2.65;;;15.80;99.90;;;;;;5113282;28;20070;-63
2022/07/28 06:03:01;;;;;;;9.23;2.40;;;15.80;99.90;;;;;;5114028;28;20051;-71
2022/07/28 06:05:29;;;;;;;5.85;2.20;;;15.90;99.90;;;;;;5110896;27;20156;-63
2022/07/28 06:07:54;;;;;;;10.30;2.42;;;16.10;99.90;;;;;;5109379;27;20046;-70
2022/07/28 06:10:23;;;;;;;8.27;2.22;;;16.20;99.90;;;;;;5113841;27;20467;-69
2022/07/28 06:12:56;;;;;;;13.73;1.95;;;16.30;99.90;;;;;;5127092;27;20075;-68
2022/07/28 06:15:24;;;;;;;9.77;2.17;;;16.60;99.90;;;;;;5114580;27;20020;-64
2022/07/28 06:17:54;;;;;;;5.10;2.10;;;16.80;99.90;;;;;;5114817;27;20024;-67
2022/07/28 06:20:21;;;;;;;11.95;2.25;;;16.90;99.90;;;;;;5113278;28;20047;-69
2022/07/28 06:22:49;;;;;;;5.65;2.20;;;17.20;99.90;;;;;;5119805;27;20102;-70
2022/07/28 06:25:18;;;;;;;6.63;2.03;;;17.60;99.90;;;;;;5121779;27;20083;-71
2022/07/28 06:27:48;;;;;;;12.32;2.67;;;17.70;99.90;;;;;;5110900;27;20103;-68
2022/07/28 06:30:15;;;;;;;6.95;2.15;;;17.40;99.90;;;;;;5118554;27;20043;-64
2022/07/28 06:32:41;;;;;;;7.95;1.92;;;17.50;99.90;;;;;;5115168;27;20094;-69
2022/07/28 06:35:08;;;;;;;4.88;2.08;;;17.50;99.90;;;;;;5099453;28;20067;-69
2022/07/28 06:37:34;;;;;;;5.32;2.53;;;17.80;99.90;;;;;;5122878;27;20116;-69
2022/07/28 06:40:00;;;;;;;11.75;2.67;;;17.80;99.90;;;;;;5120439;27;20484;-63
2022/07/28 06:42:25;;;;;;;7.78;2.47;;;18.10;99.90;;;;;;5110046;27;20011;-71
2022/07/28 06:44:52;;;;;;;6.35;1.92;;;18.20;99.90;;;;;;5119735;27;20033;-67
2022/07/28 06:47:18;;;;;;;5.85;2.25;;;18.50;99.90;;;;;;5130686;27;20042;-67
2022/07/28 06:49:44;;;;;;;10.45;1.98;;;18.50;99.90;;;;;;5122694;27;20038;-68
2022/07/28 06:52:10;;;;;;;10.02;2.13;;;18.90;99.90;;;;;;5120771;27;20122;-64
2022/07/28 06:54:36;;;;;;;8.27;2.03;;;18.80;99.90;;;;;;5116624;27;20016;-62
2022/07/28 06:57:02;;;;;;;8.05;2.33;;;18.70;99.90;;;;;;5103398;28;20028;-62
2022/07/28 06:59:28;;;;;;;10.43;2.70;;;19.20;99.90;;;;;;5101704;28;20360;-63
2022/07/28 07:02:00;;;;;;;15.70;2.70;;;19.10;99.90;;;;;;5111760;28;20428;-69
2022/07/28 07:04:27;;;;;;;4.28;1.98;;;19.00;99.90;;;;;;5113045;28;20407;-62
2022/07/28 07:06:52;;;;;;;14.48;2.42;;;19.20;99.90;;;;;;5106987;28;20074;-66
2022/07/28 07:09:18;;;;;;;11.35;2.30;;;19.10;99.90;;;;;;5112973;28;20051;-62
2022/07/28 07:11:44;;;;;;;6.95;2.05;;;19.20;99.90;;;;;;5114640;28;20061;-64
2022/07/28 07:14:10;;;;;;;8.45;2.55;;;19.20;99.90;;;;;;5113123;28;20091;-62
2022/07/28 07:16:35;;;;;;;8.50;3.28;;;19.40;99.90;;;;;;5115490;28;20024;-63
2022/07/28 07:19:01;;;;;;;8.13;2.50;;;19.50;99.90;;;;;;5095721;28;20560;-65
2022/07/28 07:21:27;;;;;;;8.10;2.20;;;19.60;99.90;;;;;;5117037;28;20043;-63
2022/07/28 07:23:52;;;;;;;6.85;1.92;;;19.50;99.90;;;;;;5117382;28;20020;-67
2022/07/28 07:26:18;;;;;;;6.20;2.88;;;19.60;99.90;;;;;;5116784;28;20055;-70
2022/07/28 07:28:44;;;;;;;8.40;2.08;;;19.70;99.90;;;;;;5102890;28;20401;-70
2022/07/28 07:31:10;;;;;;;6.15;1.95;;;19.70;99.90;;;;;;5116960;28;20027;-63
2022/07/28 07:33:36;;;;;;;7.70;2.60;;;19.90;99.90;;;;;;5117322;28;20479;-65
2022/07/28 07:36:01;;;;;;;7.18;2.00;;;20.00;99.90;;;;;;5116699;28;20020;-63
2022/07/28 07:38:27;;;;;;;8.50;2.15;;;20.30;99.70;;;;;;5117243;28;20028;-71
2022/07/28 07:40:53;;;;;;;6.47;2.28;;;20.50;99.20;;;;;;5116458;28;20042;-63
2022/07/28 07:43:19;;;;;;;7.40;2.08;;;20.40;99.50;;;;;;5098870;28;20024;-63
2022/07/28 07:45:44;;;;;;;10.93;2.00;;;20.20;99.90;;;;;;5116727;28;20049;-71
2022/07/28 07:48:10;;;;;;;13.25;2.05;;;20.70;99.50;;;;;;5116757;28;20028;-66
2022/07/28 07:50:37;;;;;;;11.27;2.63;;;21.00;99.00;;;;;;5116918;28;20467;-71
2022/07/28 07:53:03;;;;;;;7.65;2.15;;;21.30;98.40;;;;;;5098390;28;20016;-65
2022/07/28 07:55:28;;;;;;;7.53;2.05;;;20.90;99.20;;;;;;5116374;28;20439;-69
2022/07/28 07:57:54;;;;;;;9.38;2.20;;;20.80;99.40;;;;;;5116827;28;20028;-69
2022/07/28 08:00:20;;;;;;;15.13;2.63;;;20.60;99.70;;;;;;5116356;28;20479;-67
2022/07/28 08:02:46;;;;;;;9.18;2.40;;;20.70;99.20;;;;;;5116635;28;20383;-70
2022/07/28 08:05:13;;;;;;;9.07;1.95;;;20.90;99.30;;;;;;5116482;28;20035;-66
2022/07/28 08:07:38;;;;;;;9.07;2.38;;;21.20;98.80;;;;;;5116637;28;20072;-70
2022/07/28 08:10:05;;;;;;;13.65;2.20;;;21.50;98.20;;;;;;5116078;28;20039;-63
2022/07/28 08:12:31;;;;;;;8.13;2.20;;;21.70;98.00;;;;;;5116380;28;20022;-70
2022/07/28 08:14:57;;;;;;;8.85;2.35;;;21.90;98.10;;;;;;5116366;28;20088;-70
2022/07/28 08:17:23;;;;;;;10.05;2.70;;;22.00;97.40;;;;;;5116302;28;20020;-71
2022/07/28 08:19:49;;;;;;;9.95;2.80;;;22.10;97.00;;;;;;5116142;28;20084;-66
2022/07/28 08:22:16;;;;;;;7.03;2.45;;;21.40;97.80;;;;;;5097670;28;20357;-63
2022/07/28 08:24:41;;;;;;;9.40;2.08;;;21.40;97.40;;;;;;5115426;28;20028;-71
2022/07/28 08:27:07;;;;;;;12.82;2.70;;;21.60;97.40;;;;;;5114844;28;20111;-70
2022/07/28 08:29:34;;;;;;;11.23;3.17;;;21.80;97.10;;;;;;5103121;28;20023;-71
2022/07/28 08:32:03;;;;;;;12.00;2.50;;;21.90;96.80;;;;;;5126991;28;20028;-63
2022/07/28 08:34:30;;;;;;;7.68;2.15;;;21.80;96.90;;;;;;5122877;28;20029;-65
2022/07/28 08:36:56;;;;;;;8.77;2.38;;;21.60;97.10;;;;;;5115914;28;20080;-71
2022/07/28 08:39:22;;;;;;;8.38;2.38;;;21.80;97.20;;;;;;5115546;28;20452;-67
2022/07/28 08:42:00;;;;;;;7.85;2.25;;;21.80;96.90;;;;;;5115943;28;20043;-71
2022/07/28 08:44:51;;;;;;;14.00;2.67;;;21.80;97.20;;;;;;5115629;28;20106;-62
2022/07/28 08:47:18;;;;;;;4.43;2.07;;;22.10;97.10;;;;;;5101817;28;20035;-63
2022/07/28 08:49:47;;;;;;;11.45;2.20;;;22.20;96.60;;;;;;5115756;28;20027;-70
2022/07/28 08:52:13;;;;;;;8.30;1.65;;;22.20;96.40;;;;;;5115630;28;20024;-64
2022/07/28 08:54:43;;;;;;;4.65;1.80;;;22.10;96.60;;;;;;5115261;28;20024;-63
2022/07/28 08:57:16;;;;;;;9.75;2.45;;;22.40;96.40;;;;;;5115535;28;20503;-63
2022/07/28 08:59:43;;;;;;;11.60;1.90;;;22.60;96.00;;;;;;5115388;28;20035;-62
2022/07/28 09:02:12;;;;;;;9.85;2.60;;;22.50;96.00;;;;;;5115375;28;20444;-63
2022/07/28 09:04:39;;;;;;;9.88;2.03;;;22.70;95.70;;;;;;5115421;28;20031;-63
2022/07/28 09:07:05;;;;;;;7.30;2.30;;;22.90;95.20;;;;;;5115303;28;20043;-61
2022/07/28 09:09:32;;;;;;;4.47;1.95;;;23.00;95.00;;;;;;5114970;28;20042;-64
2022/07/28 09:12:01;;;;;;;7.38;1.98;;;23.10;95.10;;;;;;5115254;28;20016;-71
2022/07/28 09:14:26;;;;;;;6.88;2.35;;;23.60;94.20;;;;;;5104460;28;20028;-65
2022/07/28 09:16:53;;;;;;;9.50;1.75;;;23.80;93.90;;;;;;5114267;28;20356;-62
2022/07/28 09:19:18;;;;;;;9.77;2.55;;;23.90;93.90;;;;;;5115210;28;20395;-61
2022/07/28 09:21:44;;;;;;;5.10;2.15;;;24.20;93.30;;;;;;5115656;28;20030;-71
2022/07/28 09:24:30;;;;;;;9.45;2.22;;;24.20;92.80;;;;;;5115327;28;20035;-69
2022/07/28 09:27:00;;;;;;;9.68;2.08;;;23.90;93.10;;;;;;5114903;28;20034;-70
2022/07/28 09:29:26;;;;;;;5.88;2.00;;;24.00;93.00;;;;;;5112254;28;20035;-69
2022/07/28 09:31:52;;;;;;;8.07;2.00;;;23.80;92.90;;;;;;5115288;28;20028;-63
2022/07/28 09:34:18;;;;;;;7.57;2.42;;;23.60;92.60;;;;;;5113898;28;20031;-67
2022/07/28 09:36:44;;;;;;;7.45;1.90;;;23.50;92.60;;;;;;5114044;28;20028;-70
2022/07/28 09:39:10;;;;;;;4.53;1.75;;;23.00;92.70;;;;;;5114673;28;20081;-63
2022/07/28 09:41:47;;;;;;;6.10;1.77;;;22.70;93.80;;;;;;5114729;28;20369;-70
2022/07/28 09:44:19;;;;;;;8.13;1.98;;;22.80;93.50;;;;;;5114299;28;20030;-62
2022/07/28 09:46:45;;;;;;;7.10;1.80;;;22.90;94.00;;;;;;5114833;28;20028;-67
2022/07/28 09:49:11;;;;;;;4.47;1.65;;;23.00;93.50;;;;;;5114268;28;20107;-63
2022/07/28 09:51:37;;;;;;;5.43;1.80;;;23.20;93.40;;;;;;5114326;28;20024;-71
2022/07/28 09:54:11;;;;;;;5.47;1.80;;;23.10;93.50;;;;;;5114322;28;20050;-63
2022/07/28 09:56:38;;;;;;;5.35;1.45;;;23.20;93.20;;;;;;5114349;28;20147;-63
2022/07/28 09:59:04;;;;;;;6.47;1.80;;;23.30;93.10;;;;;;5114593;28;20057;-62
2022/07/28 10:01:30;;;;;;;7.38;1.95;;;23.80;92.90;;;;;;5096091;28;20094;-63
2022/07/28 10:03:57;;;;;;;8.35;1.90;;;24.20;92.30;;;;;;5095872;28;20019;-66
2022/07/28 10:06:28;;;;;;;4.40;1.40;;;24.80;91.50;;;;;;5113927;28;20525;-70
2022/07/28 10:08:56;;;;;;;;;;;24.90;91.20;;;;;;5114512;28;20495;-69
2022/07/28 10:11:25;;;;;;;4.25;1.40;;;24.30;91.50;;;;;;5114171;28;20313;-70
2022/07/28 10:13:59;;;;;;;6.93;1.73;;;24.20;91.10;;;;;;5113983;28;20027;-71
2022/07/28 10:16:30;;;;;;;6.55;1.63;;;24.50;91.30;;;;;;5113750;28;20028;-64
2022/07/28 10:18:58;;;;;;;7.32;1.45;;;25.00;90.80;;;;;;5113730;28;20035;-63
2022/07/28 10:21:26;;;;;;;5.18;1.73;;;25.00;90.50;;;;;;5095363;28;20034;-63
2022/07/28 10:23:58;;;;;;;2.47;1.23;;;25.10;90.00;;;;;;5113665;28;20174;-65
2022/07/28 10:26:32;;;;;;;9.73;1.60;;;25.30;88.30;;;;;;5113606;28;20373;-65
2022/07/28 10:29:02;;;;;;;4.28;1.58;;;26.00;89.80;;;;;;5099156;28;20032;-64
2022/07/28 10:31:33;;;;;;;6.65;1.48;;;25.80;89.10;;;;;;5113634;28;20442;-63
2022/07/28 10:34:01;;;;;;;4.78;1.60;;;26.10;89.90;;;;;;5113300;28;20042;-64
2022/07/28 10:36:27;;;;;;;7.38;1.23;;;26.60;87.70;;;;;;5095068;28;20422;-63
2022/07/28 10:39:10;;;;;;;4.30;1.35;;;27.10;87.50;;;;;;5113422;28;20480;-67
2022/07/28 10:41:39;;;;;;;8.05;1.60;;;27.20;85.60;;;;;;5113660;28;20484;-64
2022/07/28 10:44:06;;;;;;;4.28;1.33;;;27.20;85.90;;;;;;5113225;28;20053;-70
2022/07/28 10:46:34;;;;;;;5.00;1.75;;;27.10;84.80;;;;;;5113016;28;20023;-70
2022/07/28 10:49:00;;;;;;;3.40;1.50;;;26.90;84.40;;;;;;5113207;28;20028;-71
2022/07/28 10:51:27;;;;;;;5.60;1.60;;;26.70;84.90;;;;;;5113278;28;20038;-68
2022/07/28 10:53:59;;;;;;;8.65;1.80;;;26.90;84.80;;;;;;5095092;28;20060;-68
2022/07/28 10:56:34;;;;;;;6.78;1.85;;;27.10;84.90;;;;;;5113583;28;20398;-65
2022/07/28 10:59:24;;;;;;;5.80;1.92;;;27.30;84.90;;;;;;5113102;28;20055;-66
2022/07/28 11:01:51;;;;;;;10.00;1.88;;;27.30;83.60;;;;;;5099973;28;20522;-69
2022/07/28 11:04:40;;;;;;;10.05;2.00;;;27.50;84.60;;;;;;5112812;28;20028;-66
2022/07/28 11:07:13;;;;;;;7.68;1.48;;;27.90;82.50;;;;;;5097730;28;20071;-69
2022/07/28 11:09:40;;;;;;;6.03;1.33;;;27.60;82.80;;;;;;5118587;28;20146;-65
2022/07/28 11:12:06;;;;;;;7.75;1.63;;;27.10;80.80;;;;;;5119433;28;20047;-71
2022/07/28 11:14:36;;;;;;;5.25;1.30;;;26.70;82.70;;;;;;5094887;28;20024;-63
2022/07/28 11:17:05;;;;;;;4.33;1.30;;;26.90;82.60;;;;;;5095021;28;20418;-68
2022/07/28 11:19:42;;;;;;;10.98;1.38;;;26.80;83.40;;;;;;5112676;28;20036;-64
2022/07/28 11:22:14;;;;;;;4.53;1.23;;;26.60;82.80;;;;;;5099047;28;20484;-63
2022/07/28 11:24:55;;;;;;;7.63;1.40;;;26.70;84.20;;;;;;5113400;28;20035;-69
2022/07/28 11:27:39;;;;;;;6.32;1.20;;;26.60;83.60;;;;;;5097006;28;20032;-67
2022/07/28 11:30:09;;;;;;;5.18;1.50;;;26.30;84.70;;;;;;5104420;28;20476;-73
2022/07/28 11:32:54;;;;;;;6.72;1.30;;;26.90;84.00;;;;;;5112844;28;20040;-68
2022/07/28 11:35:26;;;;;;;4.13;1.45;;;26.70;84.20;;;;;;5113416;28;20034;-68
2022/07/28 11:38:01;;;;;;;5.68;1.42;;;27.20;83.20;;;;;;5113669;28;20464;-72
2022/07/28 11:40:39;;;;;;;4.65;1.40;;;26.70;85.00;;;;;;5108329;28;20089;-69
2022/07/28 11:43:19;;;;;;;7.15;1.67;;;26.50;84.80;;;;;;5106740;28;20050;-70
2022/07/28 11:45:51;;;;;;;4.53;1.43;;;26.50;84.90;;;;;;5116349;28;20536;-68
2022/07/28 11:48:21;;;;;;;6.40;1.63;;;26.90;84.00;;;;;;5114022;28;20038;-67
2022/07/28 11:51:02;;;;;;;4.97;1.50;;;27.10;83.20;;;;;;5107537;28;20024;-66
2022/07/28 11:53:35;;;;;;;8.27;1.65;;;28.10;83.70;;;;;;5110369;28;20273;-65
2022/07/28 11:56:06;;;;;;;7.60;1.67;;;28.20;82.20;;;;;;5112596;28;20055;-68
2022/07/28 11:58:31;;;;;;;5.60;1.58;;;28.10;81.80;;;;;;5118206;27;20051;-68
2022/07/28 12:01:13;;;;;;;6.55;1.55;;;27.60;82.80;;;;;;5119774;27;20032;-70
2022/07/28 12:03:44;;;;;;;10.02;1.88;;;27.90;82.20;;;;;;5115663;27;20034;-70
2022/07/28 12:06:11;;;;;;;9.05;1.70;;;27.20;83.00;;;;;;5112186;27;20479;-64
2022/07/28 12:08:52;;;;;;;6.10;1.58;;;27.80;81.60;;;;;;5119179;27;20476;-66
2022/07/28 12:11:19;;;;;;;7.78;1.58;;;28.40;80.80;;;;;;5117044;27;20034;-68
2022/07/28 12:13:45;;;;;;;3.40;1.23;;;29.20;80.60;;;;;;5115564;28;20018;-69
2022/07/28 12:16:11;;;;;;;6.03;1.40;;;28.10;81.10;;;;;;5123004;27;20034;-67
2022/07/28 12:18:37;;;;;;;13.57;1.58;;;28.40;80.60;;;;;;5120589;27;20043;-69
2022/07/28 12:21:03;;;;;;;5.75;1.60;;;28.10;80.20;;;;;;5118620;27;20031;-69
2022/07/28 12:23:36;;;;;;;13.00;1.52;;;28.70;79.10;;;;;;5117194;27;20099;-65
2022/07/28 12:26:05;;;;;;;8.00;1.45;;;28.70;79.10;;;;;;5102416;27;20058;-62
2022/07/28 12:28:31;;;;;;;3.28;1.20;;;27.90;80.60;;;;;;5099901;27;20047;-62
2022/07/28 12:31:11;;;;;;;3.88;1.30;;;28.80;80.00;;;;;;5127240;27;20107;-70
2022/07/28 12:33:37;;;;;;;6.53;1.55;;;28.40;80.30;;;;;;5107960;27;20449;-68
2022/07/28 12:36:04;;;;;;;6.65;1.52;;;28.70;79.80;;;;;;5117222;27;20092;-63
2022/07/28 12:38:30;;;;;;;8.65;1.80;;;29.10;80.10;;;;;;5116515;27;20019;-69
2022/07/28 12:40:57;;;;;;;11.85;1.42;;;28.50;79.40;;;;;;5115179;27;20038;-66
2022/07/28 12:43:28;;;;;;;6.00;1.70;;;28.70;79.40;;;;;;5129581;27;20106;-69
2022/07/28 12:45:54;;;;;;;5.55;1.35;;;28.50;79.70;;;;;;5123852;27;20019;-69
2022/07/28 12:48:20;;;;;;;7.05;1.50;;;27.60;80.90;;;;;;5118410;27;20394;-62
2022/07/28 12:50:47;;;;;;;4.80;1.45;;;27.10;81.40;;;;;;5115465;27;20020;-62
2022/07/28 12:53:14;;;;;;;7.50;1.98;;;27.70;82.30;;;;;;5129956;27;20019;-69
2022/07/28 12:55:44;;;;;;;6.65;1.70;;;28.30;81.00;;;;;;5127999;27;20417;-69